Osaka Airport, Japan

4:24 PM JST on September 01, 2015 (GMT +0900)
Tokura-nishi | | Change Station
CLOSE
Current Station
Personal Weather Station
Location: Toyonaka, OSAKA
Elevation: 16 ft
Nearby Weather Stations

Elev 16 ft 34.76 °N, 135.45 °E | Updated 10 seconds ago

Rain Showers
Showers Rain
78.8 °F
Feels Like 82 °F
N
1.2
Wind Variable Wind from NNW
Gusts 0.0 mph

Today
High -- | Low -- °F
--% Chance of Precip.
Yesterday
High -- | Low -- °F
Precip. -- in
5:30 AM 6:25 PM
Waning Gibbous, 91% visible
Pressure 29.80 in
Visibility 6.2 miles
Clouds Few 800 ft
Scattered Clouds 2500 ft
Few 2500 ft
Mostly Cloudy 10000 ft
Heat Index 82 °F
Dew Point 75 °F
Humidity 89%
Rainfall 0.37 in
Snow Depth Not available.
UV 0.0 out of 12
Pollen Not available.
Air Quality Not available.
Flu Activity Not available.
SPECI RJOO 010716Z 25007KT 200V330 9999 SHRA FEW008 SCT025 FEW025CB BKN100 25/24 Q1009 RMK 1ST008 3CU025 1CB025 5AC100 A2981 CB 20KM N MOV NE
Pressure 29.80 in
Visibility 6.2 miles
Clouds Few 800 ft
Scattered Clouds 2500 ft
Few 2500 ft
Mostly Cloudy 10000 ft
Heat Index 82 °F
Dew Point 75 °F
Humidity 89%
Rainfall 0.37 in
Snow Depth Not available.
UV 0.0 out of 12
Pollen Not available.
Air Quality Not available.
Flu Activity Not available.
SPECI RJOO 010716Z 25007KT 200V330 9999 SHRA FEW008 SCT025 FEW025CB BKN100 25/24 Q1009 RMK 1ST008 3CU025 1CB025 5AC100 A2981 CB 20KM N MOV NE

10-Day Weather Forecast

×

Almanac

Astronomy

Sep. 01, 2015 Rise Set
Actual Time
Civil Twilight
Nautical Twilight
Astronomical Twilight
Moon
Length of Visible Light
Length of Day
Tomorrow will be .
, % of the Moon is Illuminated

Today's Extremes

Country Highs Country Lows

Community

WunderPhotos

Upload Photos

1,851,488 photos uploaded!

WunderBlogs® & News

Nearby

Air Quality

  Air Quality AQ Index Pollutant
Not available.

Snow Depth

Station Depth Elevation

Earthquake Activity

City Distance Mag. Time & Date
Minimum magnitude displayed is 2.5.

Coastal Water Temperatures

Place Temperature

Stations

Nearby Weather Stations

Station Location Temp. Windchill Dew Point Humidity Wind Precip. Elev Updated Type